createdAt,value
2017-10-10T00:00:02.740Z,100
2017-10-10T00:01:05.168Z,100
2017-10-10T00:02:07.597Z,100
2017-10-10T00:03:10.018Z,100
2017-10-10T00:04:12.442Z,100
2017-10-10T00:05:14.872Z,100
2017-10-10T00:06:17.310Z,100
2017-10-10T00:07:19.734Z,100
2017-10-10T00:08:22.524Z,100
2017-10-10T00:09:24.957Z,100
2017-10-10T00:10:27.383Z,100
2017-10-10T00:11:29.816Z,100
2017-10-10T00:12:32.588Z,100
2017-10-10T00:13:35.010Z,100
2017-10-10T00:14:37.438Z,100
2017-10-10T00:15:40.234Z,100
2017-10-10T00:16:42.670Z,100
2017-10-10T00:17:45.097Z,100
2017-10-10T00:18:47.523Z,100
2017-10-10T00:19:50.323Z,100
2017-10-10T00:20:52.756Z,100
2017-10-10T00:21:55.177Z,100
2017-10-10T00:22:57.609Z,100
2017-10-10T00:24:00.026Z,100
2017-10-10T00:25:02.461Z,100
2017-10-10T00:26:05.247Z,100
2017-10-10T00:27:07.671Z,100
2017-10-10T00:28:10.096Z,100
2017-10-10T00:29:12.518Z,100
2017-10-10T00:30:14.948Z,100
2017-10-10T00:31:17.747Z,100
2017-10-10T00:32:20.168Z,100
2017-10-10T00:33:22.590Z,100
2017-10-10T00:34:25.024Z,100
2017-10-10T00:35:27.457Z,100
2017-10-10T00:36:29.887Z,100
2017-10-10T00:37:32.321Z,100
2017-10-10T00:38:34.742Z,100
2017-10-10T00:39:37.172Z,100
2017-10-10T00:40:39.602Z,100
2017-10-10T00:41:42.020Z,100
2017-10-10T00:42:44.449Z,100
2017-10-10T00:43:46.881Z,100
2017-10-10T00:44:50.049Z,100
2017-10-10T00:45:52.476Z,100
2017-10-10T00:46:54.910Z,100
2017-10-10T00:47:57.339Z,100
2017-10-10T00:48:59.772Z,100
2017-10-10T00:50:02.566Z,100
2017-10-10T00:51:05.348Z,100
2017-10-10T00:52:07.784Z,100
2017-10-10T00:53:10.196Z,100
2017-10-10T00:54:12.624Z,100
2017-10-10T00:55:15.057Z,100
2017-10-10T00:56:17.842Z,100
2017-10-10T00:57:21.599Z,100
2017-10-10T00:58:23.990Z,100
2017-10-10T00:59:26.424Z,100
2017-10-10T01:00:29.203Z,100
2017-10-10T01:01:31.634Z,100
2017-10-10T01:02:34.066Z,100
2017-10-10T01:03:36.490Z,100
2017-10-10T01:04:38.905Z,100
2017-10-10T01:05:41.347Z,100
2017-10-10T01:06:43.779Z,100
2017-10-10T01:07:46.200Z,100
2017-10-10T01:08:48.621Z,100
2017-10-10T01:09:51.392Z,100
2017-10-10T01:10:53.811Z,100
2017-10-10T01:11:56.969Z,100
2017-10-10T01:12:59.743Z,100
2017-10-10T01:14:02.517Z,100
2017-10-10T01:15:04.950Z,100
2017-10-10T01:16:07.377Z,100
2017-10-10T01:17:09.810Z,100
2017-10-10T01:18:12.225Z,100
2017-10-10T01:19:14.651Z,100
2017-10-10T01:20:17.073Z,100
2017-10-10T01:21:19.505Z,100
2017-10-10T01:22:22.293Z,100
2017-10-10T01:23:24.721Z,100
2017-10-10T01:24:27.148Z,100
2017-10-10T01:25:29.586Z,100
2017-10-10T01:26:32.018Z,100
2017-10-10T01:27:34.445Z,100
2017-10-10T01:28:36.862Z,100
2017-10-10T01:29:39.298Z,100
2017-10-10T01:30:41.732Z,100
2017-10-10T01:31:44.163Z,100
2017-10-10T01:32:46.584Z,100
2017-10-10T01:33:49.010Z,100
2017-10-10T01:34:51.437Z,100
2017-10-10T01:35:53.863Z,100
2017-10-10T01:36:56.286Z,100
2017-10-10T01:37:58.723Z,100
2017-10-10T01:39:01.138Z,100
2017-10-10T01:40:03.578Z,100
2017-10-10T01:41:06.387Z,100
2017-10-10T01:42:08.813Z,100
2017-10-10T01:43:11.246Z,100
2017-10-10T01:44:14.040Z,100
2017-10-10T01:45:16.462Z,100
2017-10-10T01:46:19.252Z,100
2017-10-10T01:47:21.688Z,100
2017-10-10T01:48:24.483Z,100
2017-10-10T01:49:26.903Z,100
2017-10-10T01:50:29.329Z,100
2017-10-10T01:51:31.757Z,100
2017-10-10T01:52:34.191Z,100
2017-10-10T01:53:36.620Z,100
2017-10-10T01:54:39.382Z,100
2017-10-10T01:55:41.821Z,100
2017-10-10T01:56:44.252Z,100
2017-10-10T01:57:47.040Z,100
2017-10-10T01:58:49.467Z,100
2017-10-10T01:59:51.903Z,100
2017-10-10T02:00:54.324Z,100
2017-10-10T02:01:56.755Z,100
2017-10-10T02:02:59.177Z,100
2017-10-10T02:04:01.609Z,100
2017-10-10T02:05:04.030Z,100
2017-10-10T02:06:06.458Z,100
2017-10-10T02:07:08.884Z,100
2017-10-10T02:08:11.324Z,100
2017-10-10T02:09:13.748Z,100
2017-10-10T02:10:16.182Z,100
2017-10-10T02:11:18.609Z,100
2017-10-10T02:12:21.394Z,100
2017-10-10T02:13:24.171Z,100
2017-10-10T02:14:26.600Z,100
2017-10-10T02:15:29.379Z,100
2017-10-10T02:16:31.802Z,100
2017-10-10T02:17:34.226Z,100
2017-10-10T02:18:36.666Z,100
2017-10-10T02:19:39.074Z,100
2017-10-10T02:20:41.513Z,100
2017-10-10T02:21:43.942Z,100
2017-10-10T02:22:46.373Z,100
2017-10-10T02:23:48.802Z,100
2017-10-10T02:24:51.232Z,100
2017-10-10T02:25:53.654Z,100
2017-10-10T02:26:56.108Z,100
2017-10-10T02:27:58.513Z,100
2017-10-10T02:29:01.299Z,100
2017-10-10T02:30:04.090Z,100
2017-10-10T02:31:06.525Z,100
2017-10-10T02:32:08.944Z,100
2017-10-10T02:33:11.375Z,100
2017-10-10T02:34:13.805Z,100
2017-10-10T02:35:16.238Z,100
2017-10-10T02:36:18.664Z,100
2017-10-10T02:37:21.461Z,100
2017-10-10T02:38:23.886Z,100
2017-10-10T02:39:26.328Z,100
2017-10-10T02:40:29.112Z,100
2017-10-10T02:41:31.536Z,100
2017-10-10T02:42:33.962Z,100
2017-10-10T02:43:37.117Z,100
2017-10-10T02:44:39.885Z,100
2017-10-10T02:45:42.315Z,100
2017-10-10T02:46:45.095Z,100
2017-10-10T02:47:47.529Z,100
2017-10-10T02:48:50.666Z,100
2017-10-10T02:49:53.099Z,100
2017-10-10T02:50:55.527Z,100
2017-10-10T02:51:57.970Z,100
2017-10-10T02:53:00.392Z,100
2017-10-10T02:54:02.814Z,100
2017-10-10T02:55:05.237Z,100
2017-10-10T02:56:07.672Z,100
2017-10-10T02:57:10.096Z,100
2017-10-10T02:58:12.531Z,100
2017-10-10T02:59:14.964Z,100
2017-10-10T03:00:17.388Z,100
2017-10-10T03:01:19.825Z,100
2017-10-10T03:02:22.249Z,100
2017-10-10T03:03:24.662Z,100
2017-10-10T03:04:27.107Z,100
2017-10-10T03:05:29.534Z,100
2017-10-10T03:06:31.961Z,100
2017-10-10T03:07:34.415Z,100
2017-10-10T03:08:37.180Z,100
2017-10-10T03:09:39.606Z,100
2017-10-10T03:10:42.046Z,100
2017-10-10T03:11:44.472Z,100
2017-10-10T03:12:46.941Z,100
2017-10-10T03:13:49.715Z,100
2017-10-10T03:14:52.143Z,100
2017-10-10T03:15:54.928Z,100
2017-10-10T03:16:57.361Z,100
2017-10-10T03:17:59.785Z,100
2017-10-10T03:19:02.211Z,100
2017-10-10T03:20:05.011Z,100
2017-10-10T03:21:07.787Z,100
2017-10-10T03:22:10.216Z,100
2017-10-10T03:23:12.635Z,100
2017-10-10T03:24:15.054Z,100
2017-10-10T03:25:17.490Z,100
2017-10-10T03:26:19.924Z,100
2017-10-10T03:27:22.345Z,100
2017-10-10T03:28:25.148Z,100
2017-10-10T03:29:27.586Z,100
2017-10-10T03:30:30.033Z,100
2017-10-10T03:31:32.797Z,100
2017-10-10T03:32:35.225Z,100
2017-10-10T03:33:37.659Z,100
2017-10-10T03:34:40.105Z,100
2017-10-10T03:35:42.518Z,100
2017-10-10T03:36:44.935Z,100
2017-10-10T03:37:47.361Z,100
2017-10-10T03:38:49.794Z,100
2017-10-10T03:39:52.220Z,100
2017-10-10T03:40:55.039Z,100
2017-10-10T03:41:57.460Z,100
2017-10-10T03:42:59.893Z,100
2017-10-10T03:44:02.329Z,100
2017-10-10T03:45:04.767Z,100
2017-10-10T03:46:07.191Z,100
2017-10-10T03:47:09.618Z,100
2017-10-10T03:48:12.044Z,100
2017-10-10T03:49:14.475Z,100
2017-10-10T03:50:16.896Z,100
2017-10-10T03:51:19.336Z,100
2017-10-10T03:52:21.756Z,100
2017-10-10T03:53:24.199Z,100
2017-10-10T03:54:26.984Z,100
2017-10-10T03:55:29.407Z,100
2017-10-10T03:56:31.846Z,100
2017-10-10T03:57:34.270Z,100
2017-10-10T03:58:36.704Z,100
2017-10-10T03:59:39.138Z,100
2017-10-10T04:00:41.553Z,100
2017-10-10T04:01:44.365Z,100
2017-10-10T04:02:46.813Z,100
2017-10-10T04:03:49.608Z,100
2017-10-10T04:04:52.036Z,100
2017-10-10T04:05:54.470Z,100
2017-10-10T04:06:56.894Z,100
2017-10-10T04:07:59.328Z,100
2017-10-10T04:09:01.759Z,100
2017-10-10T04:10:04.173Z,100
2017-10-10T04:11:06.983Z,100
2017-10-10T04:12:09.397Z,100
2017-10-10T04:13:11.827Z,100
2017-10-10T04:14:14.280Z,100
2017-10-10T04:15:16.720Z,100
2017-10-10T04:16:19.331Z,100
2017-10-10T04:17:21.739Z,100
2017-10-10T04:18:24.171Z,100
2017-10-10T04:19:26.599Z,100
2017-10-10T04:20:29.036Z,100
2017-10-10T04:21:31.830Z,100
2017-10-10T04:22:34.259Z,100
2017-10-10T04:23:36.691Z,100
2017-10-10T04:24:39.130Z,100
2017-10-10T04:25:41.559Z,100
2017-10-10T04:26:43.988Z,100
2017-10-10T04:27:46.787Z,100
2017-10-10T04:28:49.209Z,100
2017-10-10T04:29:51.640Z,100
2017-10-10T04:30:54.076Z,100
2017-10-10T04:31:56.852Z,100
2017-10-10T04:32:59.282Z,100
2017-10-10T04:34:01.705Z,100
2017-10-10T04:35:04.121Z,100
2017-10-10T04:36:06.560Z,100
2017-10-10T04:37:08.988Z,100
2017-10-10T04:38:11.770Z,100
2017-10-10T04:39:14.194Z,100
2017-10-10T04:40:16.635Z,100
2017-10-10T04:41:19.046Z,100
2017-10-10T04:42:21.862Z,100
2017-10-10T04:43:24.668Z,100
2017-10-10T04:44:27.095Z,100
2017-10-10T04:45:29.524Z,100
2017-10-10T04:46:32.305Z,100
2017-10-10T04:47:34.730Z,100
2017-10-10T04:48:37.167Z,100
2017-10-10T04:49:39.941Z,100
2017-10-10T04:50:42.362Z,100
2017-10-10T04:51:44.795Z,100
2017-10-10T04:52:47.230Z,100
2017-10-10T04:53:49.660Z,100
2017-10-10T04:54:52.094Z,100
2017-10-10T04:55:54.527Z,100
2017-10-10T04:56:57.320Z,100
2017-10-10T04:57:59.748Z,100
2017-10-10T04:59:02.180Z,100
2017-10-10T05:00:04.602Z,100
2017-10-10T05:01:07.034Z,100
2017-10-10T05:02:09.464Z,100
2017-10-10T05:03:11.884Z,100
2017-10-10T05:04:14.315Z,100
2017-10-10T05:05:16.749Z,100
2017-10-10T05:06:19.178Z,100
2017-10-10T05:07:21.612Z,100
2017-10-10T05:08:24.408Z,100
2017-10-10T05:09:26.836Z,100
2017-10-10T05:10:29.268Z,100
2017-10-10T05:11:31.697Z,100
2017-10-10T05:12:34.120Z,100
2017-10-10T05:13:36.551Z,100
2017-10-10T05:14:38.984Z,100
2017-10-10T05:15:41.413Z,100
2017-10-10T05:16:43.830Z,100
2017-10-10T05:17:46.265Z,100
2017-10-10T05:18:48.686Z,100
2017-10-10T05:19:51.120Z,100
2017-10-10T05:20:53.554Z,100
2017-10-10T05:21:55.980Z,100
2017-10-10T05:22:58.411Z,100
2017-10-10T05:24:00.840Z,100
2017-10-10T05:25:03.269Z,100
2017-10-10T05:26:05.704Z,100
2017-10-10T05:27:08.127Z,100
2017-10-10T05:28:10.555Z,100
2017-10-10T05:29:12.975Z,100
2017-10-10T05:30:15.395Z,100
2017-10-10T05:31:17.825Z,100
2017-10-10T05:32:20.265Z,100
2017-10-10T05:33:22.677Z,100
2017-10-10T05:34:25.108Z,100
2017-10-10T05:35:27.917Z,100
2017-10-10T05:36:30.706Z,100
2017-10-10T05:37:33.139Z,100
2017-10-10T05:38:35.566Z,100
2017-10-10T05:39:37.994Z,100
2017-10-10T05:40:40.412Z,100
2017-10-10T05:41:42.841Z,100
2017-10-10T05:42:45.284Z,100
2017-10-10T05:43:47.706Z,100
2017-10-10T05:44:50.493Z,100
2017-10-10T05:45:52.917Z,100
2017-10-10T05:46:55.349Z,100
2017-10-10T05:47:58.132Z,100
2017-10-10T05:49:00.555Z,100
2017-10-10T05:50:02.978Z,100
2017-10-10T05:51:05.396Z,100
2017-10-10T05:52:08.179Z,100
2017-10-10T05:53:10.606Z,100
2017-10-10T05:54:13.031Z,100
2017-10-10T05:55:15.803Z,100
2017-10-10T05:56:18.238Z,100
2017-10-10T05:57:20.669Z,100
2017-10-10T05:58:23.085Z,100
2017-10-10T05:59:25.516Z,100
2017-10-10T06:00:27.946Z,100
2017-10-10T06:01:30.372Z,100
2017-10-10T06:02:32.808Z,100
2017-10-10T06:03:35.237Z,100
2017-10-10T06:04:37.647Z,100
2017-10-10T06:05:40.088Z,100
2017-10-10T06:06:42.517Z,100
2017-10-10T06:07:44.932Z,100
2017-10-10T06:08:47.362Z,100
2017-10-10T06:09:49.884Z,100
2017-10-10T06:10:52.313Z,100
2017-10-10T06:11:54.746Z,100
2017-10-10T06:12:57.173Z,100
2017-10-10T06:13:59.606Z,100
2017-10-10T06:15:02.383Z,100
2017-10-10T06:16:05.160Z,100
2017-10-10T06:17:07.587Z,100
2017-10-10T06:18:10.010Z,100
2017-10-10T06:19:12.438Z,100
2017-10-10T06:20:14.861Z,100
2017-10-10T06:21:17.295Z,100
2017-10-10T06:22:19.729Z,100
2017-10-10T06:23:22.159Z,100
2017-10-10T06:24:24.940Z,100
2017-10-10T06:25:27.373Z,100
2017-10-10T06:26:29.795Z,100
2017-10-10T06:27:32.217Z,100
2017-10-10T06:28:34.660Z,100
2017-10-10T06:29:37.075Z,100
2017-10-10T06:30:39.508Z,100
2017-10-10T06:31:41.943Z,100
2017-10-10T06:32:44.368Z,100
2017-10-10T06:33:47.143Z,100
2017-10-10T06:34:49.572Z,100
2017-10-10T06:35:51.993Z,100
2017-10-10T06:36:54.786Z,100
2017-10-10T06:37:57.219Z,100
2017-10-10T06:38:59.644Z,100
2017-10-10T06:40:02.072Z,100
2017-10-10T06:41:04.499Z,100
2017-10-10T06:42:06.932Z,100
2017-10-10T06:43:09.361Z,100
2017-10-10T06:44:11.789Z,100
2017-10-10T06:45:14.211Z,100
2017-10-10T06:46:16.990Z,100
2017-10-10T06:47:19.413Z,100
2017-10-10T06:48:21.840Z,100
2017-10-10T06:49:24.620Z,100
2017-10-10T06:50:27.050Z,100
2017-10-10T06:51:29.481Z,100
2017-10-10T06:52:31.909Z,100
2017-10-10T06:53:34.342Z,100
2017-10-10T06:54:36.773Z,100
2017-10-10T06:55:39.188Z,100
2017-10-10T06:56:41.989Z,100
2017-10-10T06:57:44.420Z,100
2017-10-10T06:58:46.842Z,100
2017-10-10T06:59:49.275Z,100
2017-10-10T07:00:51.708Z,100
2017-10-10T07:01:54.131Z,100
2017-10-10T07:02:56.565Z,100
2017-10-10T07:03:58.975Z,100
2017-10-10T07:05:01.397Z,100
2017-10-10T07:06:03.828Z,100
2017-10-10T07:07:06.254Z,100
2017-10-10T07:08:08.683Z,100
2017-10-10T07:09:11.453Z,100
2017-10-10T07:10:14.231Z,100
2017-10-10T07:11:16.652Z,100
2017-10-10T07:12:19.078Z,100
2017-10-10T07:13:21.530Z,100
2017-10-10T07:14:23.945Z,100
2017-10-10T07:15:26.364Z,100
2017-10-10T07:16:28.796Z,100
2017-10-10T07:17:31.223Z,100
2017-10-10T07:18:33.657Z,100
2017-10-10T07:19:36.090Z,100
2017-10-10T07:20:38.861Z,100
2017-10-10T07:21:41.301Z,100
2017-10-10T07:22:43.734Z,100
2017-10-10T07:23:46.526Z,100
2017-10-10T07:24:49.308Z,100
2017-10-10T07:25:51.734Z,100
2017-10-10T07:26:54.160Z,100
2017-10-10T07:27:56.595Z,100
2017-10-10T07:28:59.027Z,100
2017-10-10T07:30:01.446Z,100
2017-10-10T07:31:03.880Z,100
2017-10-10T07:32:06.306Z,100
2017-10-10T07:33:08.729Z,100
2017-10-10T07:34:11.157Z,100
2017-10-10T07:35:13.578Z,100
2017-10-10T07:36:16.010Z,100
2017-10-10T07:37:18.452Z,100
2017-10-10T07:38:21.230Z,100
2017-10-10T07:39:23.671Z,100
2017-10-10T07:40:26.094Z,100
2017-10-10T07:41:28.518Z,100
2017-10-10T07:42:30.949Z,100
2017-10-10T07:43:33.376Z,100
2017-10-10T07:44:35.818Z,100
2017-10-10T07:45:38.260Z,100
2017-10-10T07:46:40.685Z,100
2017-10-10T07:47:43.135Z,100
2017-10-10T07:48:45.589Z,100
2017-10-10T07:49:48.021Z,100
2017-10-10T07:50:50.462Z,100
2017-10-10T07:51:52.900Z,100
2017-10-10T07:52:55.324Z,100
2017-10-10T07:53:57.797Z,100
2017-10-10T07:55:00.243Z,100
2017-10-10T07:56:02.682Z,100
2017-10-10T07:57:05.127Z,100
2017-10-10T07:58:07.555Z,100
2017-10-10T07:59:10.340Z,100
2017-10-10T08:00:12.770Z,100
2017-10-10T08:01:15.196Z,100
2017-10-10T08:02:17.626Z,100
2017-10-10T08:03:20.453Z,100
2017-10-10T08:04:22.890Z,100
2017-10-10T08:05:25.322Z,100
2017-10-10T08:06:27.757Z,100
2017-10-10T08:07:30.554Z,100
2017-10-10T08:08:32.984Z,100
2017-10-10T08:09:35.784Z,100
2017-10-10T08:10:38.226Z,100
2017-10-10T08:11:40.646Z,100
2017-10-10T08:12:43.429Z,100
2017-10-10T08:13:45.858Z,100
2017-10-10T08:14:48.299Z,100
2017-10-10T08:15:50.725Z,100
2017-10-10T08:16:53.156Z,100
2017-10-10T08:17:55.943Z,100
2017-10-10T08:18:58.377Z,100
2017-10-10T08:20:00.806Z,100
2017-10-10T08:21:03.596Z,100
2017-10-10T08:22:06.017Z,100
2017-10-10T08:23:08.453Z,100
2017-10-10T08:24:10.883Z,100
2017-10-10T08:25:13.329Z,100
2017-10-10T08:26:15.753Z,100
2017-10-10T08:27:18.176Z,100
2017-10-10T08:28:20.600Z,100
2017-10-10T08:29:23.039Z,100
2017-10-10T08:30:25.461Z,100
2017-10-10T08:31:27.895Z,100
2017-10-10T08:32:30.325Z,100
2017-10-10T08:33:32.757Z,100
2017-10-10T08:34:35.182Z,100
2017-10-10T08:35:37.626Z,100
2017-10-10T08:36:40.049Z,100
2017-10-10T08:37:42.482Z,100
2017-10-10T08:38:44.912Z,100
2017-10-10T08:39:47.726Z,100
2017-10-10T08:40:50.152Z,100
2017-10-10T08:41:52.590Z,100
2017-10-10T08:42:55.032Z,100
2017-10-10T08:43:57.465Z,100
2017-10-10T08:45:00.298Z,100
2017-10-10T08:46:02.740Z,100
2017-10-10T08:47:05.175Z,100
2017-10-10T08:48:07.609Z,100
2017-10-10T08:49:10.047Z,100
2017-10-10T08:50:12.468Z,100
2017-10-10T08:51:14.906Z,100
2017-10-10T08:52:17.329Z,100
2017-10-10T08:53:19.759Z,100
2017-10-10T08:54:22.186Z,100
2017-10-10T08:55:24.615Z,100
2017-10-10T08:56:27.042Z,100
2017-10-10T08:57:29.471Z,100
2017-10-10T08:58:31.892Z,100
2017-10-10T08:59:34.331Z,100
2017-10-10T09:00:36.767Z,100
2017-10-10T09:01:39.209Z,100
2017-10-10T09:02:41.643Z,100
2017-10-10T09:03:44.080Z,100
2017-10-10T09:04:46.513Z,100
2017-10-10T09:05:48.945Z,100
2017-10-10T09:06:51.370Z,100
2017-10-10T09:07:53.833Z,100
2017-10-10T09:08:56.285Z,100
2017-10-10T09:09:59.485Z,100
2017-10-10T09:11:01.948Z,100
2017-10-10T09:12:04.393Z,100
2017-10-10T09:13:07.200Z,100
2017-10-10T09:14:09.638Z,100
2017-10-10T09:15:12.092Z,100
2017-10-10T09:16:14.533Z,100
2017-10-10T09:17:16.953Z,100
2017-10-10T09:18:19.385Z,100
2017-10-10T09:19:21.827Z,100
2017-10-10T09:20:24.631Z,100
2017-10-10T09:21:27.062Z,100
2017-10-10T09:22:29.494Z,100
2017-10-10T09:23:31.918Z,100
2017-10-10T09:24:34.372Z,100
2017-10-10T09:25:37.168Z,100
2017-10-10T09:26:39.604Z,100
2017-10-10T09:27:42.044Z,100
2017-10-10T09:28:44.493Z,100
2017-10-10T09:29:46.952Z,100
2017-10-10T09:30:49.414Z,100
2017-10-10T09:31:51.875Z,100
2017-10-10T09:32:54.336Z,100
2017-10-10T09:33:56.800Z,100
2017-10-10T09:34:59.251Z,100
2017-10-10T09:36:02.055Z,100
2017-10-10T09:37:04.493Z,100
2017-10-10T09:38:06.931Z,100
2017-10-10T09:39:10.125Z,100
2017-10-10T09:40:12.570Z,100
2017-10-10T09:41:15.035Z,100
2017-10-10T09:42:17.841Z,100
2017-10-10T09:43:20.260Z,100
2017-10-10T09:44:22.702Z,100
2017-10-10T09:45:25.166Z,100
2017-10-10T09:46:27.629Z,100
2017-10-10T09:47:30.090Z,100
2017-10-10T09:48:32.547Z,100
2017-10-10T09:49:35.005Z,100
2017-10-10T09:50:37.470Z,100
2017-10-10T09:51:39.929Z,100
2017-10-10T09:52:42.387Z,100
2017-10-10T09:53:44.840Z,100
2017-10-10T09:54:47.303Z,100
2017-10-10T09:55:49.761Z,99
2017-10-10T09:56:52.571Z,99
2017-10-10T09:57:55.027Z,100
2017-10-10T09:58:57.467Z,100
2017-10-10T09:59:59.888Z,99
2017-10-10T10:01:02.678Z,99
2017-10-10T10:02:05.110Z,99
2017-10-10T10:03:07.895Z,99
2017-10-10T10:04:10.320Z,99
2017-10-10T10:05:12.759Z,99
2017-10-10T10:06:15.567Z,98
2017-10-10T10:07:18.005Z,98
2017-10-10T10:08:20.437Z,98
2017-10-10T10:09:23.226Z,98
2017-10-10T10:10:25.665Z,98
2017-10-10T10:11:28.455Z,98
2017-10-10T10:12:30.887Z,98
2017-10-10T10:13:33.317Z,97
2017-10-10T10:14:35.758Z,97
2017-10-10T10:15:38.191Z,97
2017-10-10T10:16:40.981Z,97
2017-10-10T10:17:43.836Z,97
2017-10-10T10:18:46.269Z,97
2017-10-10T10:19:48.707Z,97
2017-10-10T10:20:51.142Z,96
2017-10-10T10:21:53.584Z,96
2017-10-10T10:22:56.017Z,96
2017-10-10T10:23:58.464Z,96
2017-10-10T10:25:00.899Z,96
2017-10-10T10:26:03.319Z,96
2017-10-10T10:27:05.754Z,96
2017-10-10T10:28:08.195Z,96
2017-10-10T10:29:10.628Z,96
2017-10-10T10:30:13.059Z,96
2017-10-10T10:31:15.846Z,95
2017-10-10T10:32:18.287Z,95
2017-10-10T10:33:21.083Z,95
2017-10-10T10:34:23.876Z,95
2017-10-10T10:35:26.303Z,95
2017-10-10T10:36:28.741Z,96
2017-10-10T10:37:31.180Z,95
2017-10-10T10:38:33.609Z,95
2017-10-10T10:39:36.405Z,95
2017-10-10T10:40:38.844Z,95
2017-10-10T10:41:41.271Z,94
2017-10-10T10:42:43.703Z,94
2017-10-10T10:43:46.138Z,94
2017-10-10T10:44:48.573Z,95
2017-10-10T10:45:51.012Z,95
2017-10-10T10:46:53.448Z,95
2017-10-10T10:47:55.866Z,95
2017-10-10T10:48:58.314Z,95
2017-10-10T10:50:00.750Z,95
2017-10-10T10:51:03.181Z,94
2017-10-10T10:52:05.625Z,94
2017-10-10T10:53:08.058Z,94
2017-10-10T10:54:10.495Z,94
2017-10-10T10:55:13.285Z,94
2017-10-10T10:56:15.727Z,94
2017-10-10T10:57:18.159Z,94
2017-10-10T10:58:20.594Z,95
2017-10-10T10:59:23.020Z,95
2017-10-10T11:00:25.464Z,95
2017-10-10T11:01:27.898Z,95
2017-10-10T11:02:30.337Z,95
2017-10-10T11:03:32.771Z,96
2017-10-10T11:04:35.200Z,95
2017-10-10T11:05:37.648Z,95
2017-10-10T11:06:40.071Z,95
2017-10-10T11:07:42.504Z,95
2017-10-10T11:08:44.945Z,95
2017-10-10T11:09:47.376Z,95
2017-10-10T11:10:49.809Z,95
2017-10-10T11:11:52.250Z,95
2017-10-10T11:12:54.664Z,95
2017-10-10T11:13:57.116Z,95
2017-10-10T11:14:59.550Z,95
2017-10-10T11:16:01.984Z,95
2017-10-10T11:17:04.420Z,95
2017-10-10T11:18:06.857Z,95
2017-10-10T11:19:09.289Z,95
2017-10-10T11:20:11.725Z,95
2017-10-10T11:21:14.154Z,95
2017-10-10T11:22:16.591Z,95
2017-10-10T11:23:19.040Z,95
2017-10-10T11:24:21.466Z,95
2017-10-10T11:25:23.899Z,95
2017-10-10T11:26:26.325Z,96
2017-10-10T11:27:28.765Z,96
2017-10-10T11:28:31.203Z,96
2017-10-10T11:29:34.001Z,95
2017-10-10T11:30:36.421Z,95
2017-10-10T11:31:38.868Z,96
2017-10-10T11:32:41.306Z,96
2017-10-10T11:33:43.734Z,95
2017-10-10T11:34:46.160Z,96
2017-10-10T11:35:48.593Z,96
2017-10-10T11:36:51.016Z,96
2017-10-10T11:37:53.468Z,96
2017-10-10T11:38:55.898Z,96
2017-10-10T11:39:58.681Z,95
2017-10-10T11:41:01.117Z,95
2017-10-10T11:42:03.564Z,95
2017-10-10T11:43:06.377Z,95
2017-10-10T11:44:08.813Z,95
2017-10-10T11:45:11.236Z,95
2017-10-10T11:46:13.674Z,95
2017-10-10T11:47:16.115Z,95
2017-10-10T11:48:18.540Z,94
2017-10-10T11:49:20.971Z,94
2017-10-10T11:50:23.404Z,94
2017-10-10T11:51:25.837Z,94
2017-10-10T11:52:28.630Z,94
2017-10-10T11:53:31.051Z,94
2017-10-10T11:54:33.489Z,94
2017-10-10T11:55:35.927Z,93
2017-10-10T11:56:38.372Z,94
2017-10-10T11:57:40.808Z,94
2017-10-10T11:58:43.244Z,93
2017-10-10T11:59:45.683Z,93
2017-10-10T12:00:48.127Z,93
2017-10-10T12:01:50.555Z,93
2017-10-10T12:02:52.991Z,94
2017-10-10T12:03:55.419Z,94
2017-10-10T12:04:58.213Z,94
2017-10-10T12:06:01.014Z,94
2017-10-10T12:07:03.806Z,95
2017-10-10T12:08:06.243Z,95
2017-10-10T12:09:08.684Z,95
2017-10-10T12:10:11.119Z,95
2017-10-10T12:11:13.537Z,95
2017-10-10T12:12:15.995Z,94
2017-10-10T12:13:18.410Z,94
2017-10-10T12:14:20.837Z,94
2017-10-10T12:15:23.627Z,94
2017-10-10T12:16:26.057Z,94
2017-10-10T12:17:28.488Z,95
2017-10-10T12:18:30.930Z,95
2017-10-10T12:19:33.352Z,95
2017-10-10T12:20:35.795Z,95
2017-10-10T12:21:38.220Z,95
2017-10-10T12:22:40.652Z,96
2017-10-10T12:23:43.089Z,96
2017-10-10T12:24:45.530Z,96
2017-10-10T12:25:47.961Z,96
2017-10-10T12:26:50.401Z,96
2017-10-10T12:27:53.186Z,96
2017-10-10T12:28:55.977Z,96
2017-10-10T12:29:58.425Z,96
2017-10-10T12:31:01.203Z,96
2017-10-10T12:32:03.625Z,96
2017-10-10T12:33:06.056Z,96
2017-10-10T12:34:08.495Z,96
2017-10-10T12:35:10.917Z,96
2017-10-10T12:36:13.351Z,96
2017-10-10T12:37:15.801Z,97
2017-10-10T12:38:18.234Z,97
2017-10-10T12:39:20.670Z,97
2017-10-10T12:40:23.105Z,97
2017-10-10T12:41:25.538Z,97
2017-10-10T12:42:27.977Z,97
2017-10-10T12:43:30.412Z,97
2017-10-10T12:44:32.836Z,97
2017-10-10T12:45:35.276Z,97
2017-10-10T12:46:37.699Z,97
2017-10-10T12:47:40.141Z,97
2017-10-10T12:48:42.569Z,97
2017-10-10T12:49:45.008Z,97
2017-10-10T12:50:47.436Z,97
2017-10-10T12:51:49.874Z,97
2017-10-10T12:52:52.307Z,97
2017-10-10T12:53:54.744Z,97
2017-10-10T12:54:57.180Z,97
2017-10-10T12:55:59.619Z,97
2017-10-10T12:57:02.068Z,97
2017-10-10T12:58:04.508Z,97
2017-10-10T12:59:06.951Z,97
2017-10-10T13:00:09.738Z,97
2017-10-10T13:01:12.186Z,97
2017-10-10T13:02:14.613Z,97
2017-10-10T13:03:17.039Z,97
2017-10-10T13:04:19.476Z,97
2017-10-10T13:05:21.909Z,97
2017-10-10T13:06:24.349Z,97
2017-10-10T13:07:26.786Z,97
2017-10-10T13:08:29.232Z,97
2017-10-10T13:09:31.659Z,97
2017-10-10T13:10:34.086Z,97
2017-10-10T13:11:36.522Z,97
2017-10-10T13:12:39.300Z,97
2017-10-10T13:13:41.725Z,97
2017-10-10T13:14:44.159Z,97
2017-10-10T13:15:46.587Z,97
2017-10-10T13:16:49.025Z,97
2017-10-10T13:17:51.455Z,97
2017-10-10T13:19:45.185Z,97
2017-10-10T13:20:47.580Z,96
2017-10-10T13:21:50.311Z,96
2017-10-10T13:22:52.679Z,96
2017-10-10T13:23:55.060Z,96
2017-10-10T13:24:57.441Z,96
2017-10-10T13:25:59.831Z,95
2017-10-10T13:27:02.221Z,95
2017-10-10T13:28:04.788Z,95
2017-10-10T13:29:07.174Z,94
2017-10-10T13:30:09.564Z,94
2017-10-10T13:31:11.937Z,94
2017-10-10T13:32:14.312Z,94
2017-10-10T13:33:16.693Z,93
2017-10-10T13:34:19.779Z,93
2017-10-10T13:35:22.174Z,93
2017-10-10T13:36:24.557Z,93
2017-10-10T13:37:26.926Z,93
2017-10-10T13:38:29.314Z,93
2017-10-10T13:39:31.703Z,93
2017-10-10T13:40:34.085Z,93
2017-10-10T13:41:36.467Z,93
2017-10-10T13:42:38.843Z,93
2017-10-10T13:43:41.569Z,93
2017-10-10T13:44:43.962Z,93
2017-10-10T13:45:46.338Z,93
2017-10-10T13:46:48.716Z,93
2017-10-10T13:47:51.109Z,93
2017-10-10T13:48:53.499Z,92
2017-10-10T13:49:55.880Z,93
2017-10-10T13:50:58.259Z,92
2017-10-10T13:52:00.633Z,92
2017-10-10T13:53:03.001Z,92
2017-10-10T13:54:05.394Z,93
2017-10-10T13:55:07.775Z,93
2017-10-10T13:56:10.150Z,93
2017-10-10T13:57:12.537Z,93
2017-10-10T13:58:15.267Z,93
2017-10-10T13:59:17.659Z,92
2017-10-10T14:00:20.046Z,93
2017-10-10T14:01:22.413Z,93
2017-10-10T14:02:24.792Z,93
2017-10-10T14:03:27.180Z,93
2017-10-10T14:04:29.569Z,93
2017-10-10T14:05:31.950Z,93
2017-10-10T14:06:34.706Z,93
2017-10-10T14:07:37.097Z,93
2017-10-10T14:08:39.480Z,94
2017-10-10T14:09:41.863Z,94
2017-10-10T14:10:44.264Z,94
2017-10-10T14:11:46.627Z,94
2017-10-10T14:12:49.011Z,94
2017-10-10T14:13:51.389Z,94
2017-10-10T14:14:53.764Z,94
2017-10-10T14:15:56.162Z,94
2017-10-10T14:16:58.899Z,94
2017-10-10T14:18:01.272Z,94
2017-10-10T14:19:04.376Z,94
2017-10-10T14:20:06.751Z,94
2017-10-10T14:21:09.139Z,94
2017-10-10T14:22:11.894Z,94
2017-10-10T14:23:14.277Z,94
2017-10-10T14:24:16.660Z,94
2017-10-10T14:25:19.050Z,94
2017-10-10T14:26:21.426Z,95
2017-10-10T14:27:23.816Z,95
2017-10-10T14:28:26.191Z,95
2017-10-10T14:29:29.303Z,95
2017-10-10T14:30:31.672Z,95